sensor_id;sensor_type;location;lat;lon;timestamp;pressure;altitude;pressure_sealevel;temperature;humidity
113;BME280;45999;48.808;9.182;2023-07-09T00:02:11;98385.91;;;22.64;70.60
113;BME280;45999;48.808;9.182;2023-07-09T00:04:37;98379.66;;;22.68;69.35
113;BME280;45999;48.808;9.182;2023-07-09T00:07:04;98376.94;;;22.68;68.70
113;BME280;45999;48.808;9.182;2023-07-09T00:09:31;98383.81;;;22.61;69.50
113;BME280;45999;48.808;9.182;2023-07-09T00:12:01;98381.16;;;22.56;69.42
113;BME280;45999;48.808;9.182;2023-07-09T00:14:27;98382.28;;;22.50;70.30
113;BME280;45999;48.808;9.182;2023-07-09T00:16:54;98385.03;;;22.45;70.41
113;BME280;45999;48.808;9.182;2023-07-09T00:19:22;98385.53;;;22.52;69.47
113;BME280;45999;48.808;9.182;2023-07-09T00:21:50;98381.25;;;22.46;70.89
113;BME280;45999;48.808;9.182;2023-07-09T00:24:20;98387.50;;;22.41;70.65
113;BME280;45999;48.808;9.182;2023-07-09T00:26:46;98390.78;;;22.38;70.62
113;BME280;45999;48.808;9.182;2023-07-09T00:29:16;98382.94;;;22.37;70.75
113;BME280;45999;48.808;9.182;2023-07-09T00:31:43;98391.66;;;22.34;70.53
113;BME280;45999;48.808;9.182;2023-07-09T00:34:13;98388.66;;;22.35;70.80
113;BME280;45999;48.808;9.182;2023-07-09T00:36:40;98386.28;;;22.29;71.73
113;BME280;45999;48.808;9.182;2023-07-09T00:39:22;98384.31;;;22.34;73.49
113;BME280;45999;48.808;9.182;2023-07-09T00:41:50;98388.34;;;22.37;72.16
113;BME280;45999;48.808;9.182;2023-07-09T00:49:12;98396.53;;;22.32;72.14
113;BME280;45999;48.808;9.182;2023-07-09T00:51:45;98391.69;;;22.29;72.17
113;BME280;45999;48.808;9.182;2023-07-09T00:54:28;98396.91;;;22.20;72.99
113;BME280;45999;48.808;9.182;2023-07-09T00:56:59;98395.25;;;22.24;73.67
113;BME280;45999;48.808;9.182;2023-07-09T00:59:30;98406.91;;;22.25;73.22
113;BME280;45999;48.808;9.182;2023-07-09T01:01:58;98404.44;;;22.28;73.16
113;BME280;45999;48.808;9.182;2023-07-09T01:04:25;98399.88;;;22.24;73.11
113;BME280;45999;48.808;9.182;2023-07-09T01:06:54;98403.69;;;22.18;74.18
113;BME280;45999;48.808;9.182;2023-07-09T01:09:23;98403.19;;;22.16;74.12
113;BME280;45999;48.808;9.182;2023-07-09T01:11:50;98405.94;;;22.11;73.37
113;BME280;45999;48.808;9.182;2023-07-09T01:14:19;98411.69;;;22.04;74.66
113;BME280;45999;48.808;9.182;2023-07-09T01:16:49;98414.19;;;21.96;75.83
113;BME280;45999;48.808;9.182;2023-07-09T01:19:27;98408.22;;;21.99;75.22
113;BME280;45999;48.808;9.182;2023-07-09T01:22:01;98409.63;;;21.91;75.89
113;BME280;45999;48.808;9.182;2023-07-09T01:24:53;98413.75;;;21.84;76.67
113;BME280;45999;48.808;9.182;2023-07-09T01:27:36;98411.78;;;21.89;77.44
113;BME280;45999;48.808;9.182;2023-07-09T01:30:09;98409.91;;;21.90;75.93
113;BME280;45999;48.808;9.182;2023-07-09T01:32:37;98398.84;;;21.86;76.60
113;BME280;45999;48.808;9.182;2023-07-09T01:35:06;98402.34;;;21.87;77.24
113;BME280;45999;48.808;9.182;2023-07-09T01:37:35;98404.56;;;21.80;77.21
113;BME280;45999;48.808;9.182;2023-07-09T01:40:04;98404.63;;;21.75;77.73
113;BME280;45999;48.808;9.182;2023-07-09T01:42:31;98405.69;;;21.69;77.98
113;BME280;45999;48.808;9.182;2023-07-09T01:44:58;98401.41;;;21.63;78.50
113;BME280;45999;48.808;9.182;2023-07-09T01:47:26;98399.81;;;21.62;78.44
113;BME280;45999;48.808;9.182;2023-07-09T01:49:53;98394.91;;;21.64;78.08
113;BME280;45999;48.808;9.182;2023-07-09T01:52:27;98409.03;;;21.61;78.07
113;BME280;45999;48.808;9.182;2023-07-09T01:54:54;98406.00;;;21.62;78.37
113;BME280;45999;48.808;9.182;2023-07-09T01:57:22;98404.66;;;21.60;78.86
113;BME280;45999;48.808;9.182;2023-07-09T01:59:53;98405.78;;;21.59;78.67
113;BME280;45999;48.808;9.182;2023-07-09T02:02:23;98405.25;;;21.57;77.97
113;BME280;45999;48.808;9.182;2023-07-09T02:04:55;98409.34;;;21.54;77.62
113;BME280;45999;48.808;9.182;2023-07-09T02:07:23;98417.19;;;21.51;78.71
113;BME280;45999;48.808;9.182;2023-07-09T02:09:51;98420.69;;;21.51;78.07
113;BME280;45999;48.808;9.182;2023-07-09T02:12:18;98415.13;;;21.38;78.99
113;BME280;45999;48.808;9.182;2023-07-09T02:14:45;98407.28;;;21.36;78.67
113;BME280;45999;48.808;9.182;2023-07-09T02:17:13;98418.13;;;21.31;78.74
113;BME280;45999;48.808;9.182;2023-07-09T02:19:40;98409.22;;;21.26;78.86
113;BME280;45999;48.808;9.182;2023-07-09T02:22:07;98410.88;;;21.22;80.08
113;BME280;45999;48.808;9.182;2023-07-09T02:24:34;98400.03;;;21.22;80.50
113;BME280;45999;48.808;9.182;2023-07-09T02:27:03;98413.28;;;21.23;80.81
113;BME280;45999;48.808;9.182;2023-07-09T02:29:30;98408.41;;;21.25;80.50
113;BME280;45999;48.808;9.182;2023-07-09T02:31:59;98414.63;;;21.26;79.95
113;BME280;45999;48.808;9.182;2023-07-09T02:34:27;98413.28;;;21.23;80.15
113;BME280;45999;48.808;9.182;2023-07-09T02:36:55;98410.88;;;21.22;80.52
113;BME280;45999;48.808;9.182;2023-07-09T02:39:23;98417.88;;;21.23;80.30
113;BME280;45999;48.808;9.182;2023-07-09T02:41:49;98422.78;;;21.21;80.41
113;BME280;45999;48.808;9.182;2023-07-09T02:44:16;98417.88;;;21.23;80.78
113;BME280;45999;48.808;9.182;2023-07-09T02:46:43;98421.44;;;21.18;80.92
113;BME280;45999;48.808;9.182;2023-07-09T02:49:11;98416.28;;;21.17;81.33
113;BME280;45999;48.808;9.182;2023-07-09T02:51:38;98425.78;;;21.14;82.30
113;BME280;45999;48.808;9.182;2023-07-09T02:54:05;98427.66;;;21.14;82.12
113;BME280;45999;48.808;9.182;2023-07-09T02:56:32;98430.66;;;21.07;82.32
113;BME280;45999;48.808;9.182;2023-07-09T02:58:59;98430.97;;;21.01;83.42
113;BME280;45999;48.808;9.182;2023-07-09T03:01:25;98431.81;;;20.96;83.55
113;BME280;45999;48.808;9.182;2023-07-09T03:03:55;98438.00;;;20.87;84.52
113;BME280;45999;48.808;9.182;2023-07-09T03:06:23;98426.94;;;20.88;83.95
113;BME280;45999;48.808;9.182;2023-07-09T03:08:50;98437.47;;;20.85;85.24
113;BME280;45999;48.808;9.182;2023-07-09T03:11:18;98434.22;;;20.83;84.76
113;BME280;45999;48.808;9.182;2023-07-09T03:13:45;98436.16;;;20.82;84.45
113;BME280;45999;48.808;9.182;2023-07-09T03:16:13;98425.63;;;20.76;85.66
113;BME280;45999;48.808;9.182;2023-07-09T03:18:40;98430.19;;;20.80;84.78
113;BME280;45999;48.808;9.182;2023-07-09T03:21:06;98436.66;;;20.84;83.90
113;BME280;45999;48.808;9.182;2023-07-09T03:23:33;98439.09;;;20.91;83.73
113;BME280;45999;48.808;9.182;2023-07-09T03:25:59;98441.53;;;20.92;83.48
113;BME280;45999;48.808;9.182;2023-07-09T03:28:25;98436.66;;;20.94;83.69
113;BME280;45999;48.808;9.182;2023-07-09T03:30:54;98431.00;;;20.91;83.64
113;BME280;45999;48.808;9.182;2023-07-09T03:33:21;98432.59;;;20.87;84.17
113;BME280;45999;48.808;9.182;2023-07-09T03:35:48;98435.06;;;20.83;84.83
113;BME280;45999;48.808;9.182;2023-07-09T03:38:14;98437.22;;;20.81;84.84
113;BME280;45999;48.808;9.182;2023-07-09T03:40:40;98440.22;;;20.80;85.46
113;BME280;45999;48.808;9.182;2023-07-09T03:43:08;98448.34;;;20.75;85.68
113;BME280;45999;48.808;9.182;2023-07-09T03:45:37;98452.09;;;20.79;85.49
113;BME280;45999;48.808;9.182;2023-07-09T03:48:05;98448.84;;;20.82;84.55
113;BME280;45999;48.808;9.182;2023-07-09T03:50:32;98451.00;;;20.85;85.38
113;BME280;45999;48.808;9.182;2023-07-09T03:52:58;98448.56;;;20.83;84.62
113;BME280;45999;48.808;9.182;2023-07-09T03:55:25;98450.19;;;20.84;84.67
113;BME280;45999;48.808;9.182;2023-07-09T03:57:55;98451.03;;;20.80;85.39
113;BME280;45999;48.808;9.182;2023-07-09T04:00:22;98455.59;;;20.79;85.25
113;BME280;45999;48.808;9.182;2023-07-09T04:02:51;98456.41;;;20.80;85.91
113;BME280;45999;48.808;9.182;2023-07-09T04:05:17;98451.03;;;20.80;85.17
113;BME280;45999;48.808;9.182;2023-07-09T04:07:44;98451.03;;;20.80;85.17
113;BME280;45999;48.808;9.182;2023-07-09T04:10:11;98453.16;;;20.83;85.39
113;BME280;45999;48.808;9.182;2023-07-09T04:12:37;98448.56;;;20.83;84.98
113;BME280;45999;48.808;9.182;2023-07-09T04:15:04;98443.69;;;20.85;85.05
113;BME280;45999;48.808;9.182;2023-07-09T04:17:31;98453.69;;;20.85;84.97
113;BME280;45999;48.808;9.182;2023-07-09T04:19:58;98456.66;;;20.88;84.21
113;BME280;45999;48.808;9.182;2023-07-09T04:22:25;98453.69;;;20.90;84.54
113;BME280;45999;48.808;9.182;2023-07-09T04:24:51;98454.53;;;20.90;84.28
113;BME280;45999;48.808;9.182;2023-07-09T04:27:18;98460.97;;;20.89;84.66
113;BME280;45999;48.808;9.182;2023-07-09T04:29:45;98451.00;;;20.85;84.68
113;BME280;45999;48.808;9.182;2023-07-09T04:32:13;98459.63;;;20.87;84.51
113;BME280;45999;48.808;9.182;2023-07-09T04:34:41;98455.31;;;20.86;84.83
113;BME280;45999;48.808;9.182;2023-07-09T04:37:09;98451.25;;;20.93;84.33
113;BME280;45999;48.808;9.182;2023-07-09T04:39:37;98458.00;;;20.96;84.41
113;BME280;45999;48.808;9.182;2023-07-09T04:42:03;98457.44;;;21.09;83.61
113;BME280;45999;48.808;9.182;2023-07-09T04:44:30;98458.78;;;21.06;83.75
113;BME280;45999;48.808;9.182;2023-07-09T04:46:56;98467.44;;;21.08;83.63
113;BME280;45999;48.808;9.182;2023-07-09T04:49:23;98469.06;;;21.09;83.32
113;BME280;45999;48.808;9.182;2023-07-09T04:51:49;98462.78;;;21.19;82.60
113;BME280;45999;48.808;9.182;2023-07-09T04:54:15;98463.88;;;21.18;82.58
113;BME280;45999;48.808;9.182;2023-07-09T04:56:42;98464.41;;;21.25;82.72
113;BME280;45999;48.808;9.182;2023-07-09T04:59:10;98467.09;;;21.30;82.06
113;BME280;45999;48.808;9.182;2023-07-09T05:01:37;98472.19;;;21.36;82.29
113;BME280;45999;48.808;9.182;2023-07-09T05:04:03;98467.56;;;21.37;81.58
113;BME280;45999;48.808;9.182;2023-07-09T05:06:30;98471.59;;;21.49;81.26
113;BME280;45999;48.808;9.182;2023-07-09T05:08:56;98472.06;;;21.56;81.44
113;BME280;45999;48.808;9.182;2023-07-09T05:11:23;98475.03;;;21.60;80.95
113;BME280;45999;48.808;9.182;2023-07-09T05:13:49;98479.72;;;21.98;78.89
113;BME280;45999;48.808;9.182;2023-07-09T05:16:15;98478.44;;;22.24;77.27
113;BME280;45999;48.808;9.182;2023-07-09T05:18:44;98483.25;;;22.60;75.55
113;BME280;45999;48.808;9.182;2023-07-09T05:21:11;98478.44;;;22.81;73.41
113;BME280;45999;48.808;9.182;2023-07-09T05:23:37;98480.97;;;23.01;72.46
113;BME280;45999;48.808;9.182;2023-07-09T05:26:04;98484.75;;;23.47;69.53
113;BME280;45999;48.808;9.182;2023-07-09T05:28:30;98485.13;;;24.01;66.75
113;BME280;45999;48.808;9.182;2023-07-09T05:30:57;98484.72;;;23.89;66.99
113;BME280;45999;48.808;9.182;2023-07-09T05:33:24;98481.50;;;24.24;65.17
113;BME280;45999;48.808;9.182;2023-07-09T05:35:50;98487.22;;;23.85;68.25
113;BME280;45999;48.808;9.182;2023-07-09T05:38:17;98485.94;;;23.59;68.15
113;BME280;45999;48.808;9.182;2023-07-09T05:40:43;98479.34;;;23.47;68.81
113;BME280;45999;48.808;9.182;2023-07-09T05:43:10;98494.59;;;23.61;68.82
113;BME280;45999;48.808;9.182;2023-07-09T05:45:39;98492.13;;;23.65;67.55
113;BME280;45999;48.808;9.182;2023-07-09T05:48:06;98489.16;;;23.43;69.44
113;BME280;45999;48.808;9.182;2023-07-09T05:50:34;98493.00;;;23.37;69.44
113;BME280;45999;48.808;9.182;2023-07-09T05:53:01;98487.53;;;23.42;70.78
113;BME280;45999;48.808;9.182;2023-07-09T05:55:27;98492.03;;;23.28;70.92
113;BME280;45999;48.808;9.182;2023-07-09T05:57:53;98496.31;;;23.34;70.76
113;BME280;45999;48.808;9.182;2023-07-09T06:00:20;98485.91;;;23.41;71.63
113;BME280;45999;48.808;9.182;2023-07-09T06:02:46;98493.47;;;23.44;70.18
113;BME280;45999;48.808;9.182;2023-07-09T06:05:13;98493.97;;;23.46;69.98
113;BME280;45999;48.808;9.182;2023-07-09T06:07:40;98493.81;;;23.61;69.51
113;BME280;45999;48.808;9.182;2023-07-09T06:10:08;98495.19;;;23.77;68.73
113;BME280;45999;48.808;9.182;2023-07-09T06:12:35;98490.44;;;23.69;69.90
113;BME280;45999;48.808;9.182;2023-07-09T06:15:01;98498.44;;;23.79;69.21
113;BME280;45999;48.808;9.182;2023-07-09T06:17:28;98500.88;;;23.99;67.69
113;BME280;45999;48.808;9.182;2023-07-09T06:19:54;98496.69;;;23.88;68.00
113;BME280;45999;48.808;9.182;2023-07-09T06:22:20;98500.47;;;23.87;68.25
113;BME280;45999;48.808;9.182;2023-07-09T06:24:47;98504.28;;;23.86;68.28
113;BME280;45999;48.808;9.182;2023-07-09T06:27:13;98506.50;;;23.84;70.29
113;BME280;45999;48.808;9.182;2023-07-09T06:29:39;98508.53;;;23.97;68.44
113;BME280;45999;48.808;9.182;2023-07-09T06:32:06;98512.41;;;24.09;70.23
113;BME280;45999;48.808;9.182;2023-07-09T06:34:32;98511.09;;;24.07;68.19
113;BME280;45999;48.808;9.182;2023-07-09T06:36:59;98506.25;;;24.04;68.17
113;BME280;45999;48.808;9.182;2023-07-09T06:39:25;98502.38;;;24.42;66.90
113;BME280;45999;48.808;9.182;2023-07-09T06:41:51;98505.09;;;24.42;67.60
113;BME280;45999;48.808;9.182;2023-07-09T06:44:18;98503.25;;;24.37;66.62
113;BME280;45999;48.808;9.182;2023-07-09T06:46:44;98502.97;;;24.39;68.35
113;BME280;45999;48.808;9.182;2023-07-09T06:49:11;98502.22;;;24.52;67.16
113;BME280;45999;48.808;9.182;2023-07-09T06:51:37;98503.25;;;24.56;66.01
113;BME280;45999;48.808;9.182;2023-07-09T06:54:03;98505.34;;;24.59;65.92
113;BME280;45999;48.808;9.182;2023-07-09T06:56:31;98510.22;;;24.62;65.96
113;BME280;45999;48.808;9.182;2023-07-09T06:58:57;98499.38;;;24.75;65.39
113;BME280;45999;48.808;9.182;2023-07-09T07:01:24;98508.38;;;25.03;63.87
113;BME280;45999;48.808;9.182;2023-07-09T07:03:51;98506.59;;;24.98;63.69
113;BME280;45999;48.808;9.182;2023-07-09T07:06:17;98501.41;;;24.83;63.60
113;BME280;45999;48.808;9.182;2023-07-09T07:08:44;98508.56;;;24.93;63.55
113;BME280;45999;48.808;9.182;2023-07-09T07:11:10;98502.25;;;25.11;63.27
113;BME280;45999;48.808;9.182;2023-07-09T07:13:39;98505.59;;;25.21;63.57
113;BME280;45999;48.808;9.182;2023-07-09T07:16:08;98506.13;;;25.37;63.22
113;BME280;45999;48.808;9.182;2023-07-09T07:18:35;98501.66;;;25.54;61.80
113;BME280;45999;48.808;9.182;2023-07-09T07:21:02;98503.31;;;25.91;60.33
113;BME280;45999;48.808;9.182;2023-07-09T07:23:30;98497.78;;;25.96;59.30
113;BME280;45999;48.808;9.182;2023-07-09T07:25:57;98497.97;;;25.99;59.28
113;BME280;45999;48.808;9.182;2023-07-09T07:28:23;98496.81;;;26.14;58.89
113;BME280;45999;48.808;9.182;2023-07-09T07:31:06;98503.78;;;26.28;59.75
113;BME280;45999;48.808;9.182;2023-07-09T07:33:34;98500.78;;;26.30;58.96
113;BME280;45999;48.808;9.182;2023-07-09T07:36:00;98501.34;;;26.40;57.62
113;BME280;45999;48.808;9.182;2023-07-09T07:38:27;98499.16;;;26.51;57.31
113;BME280;45999;48.808;9.182;2023-07-09T07:40:53;98492.88;;;26.64;56.88
113;BME280;45999;48.808;9.182;2023-07-09T07:43:20;98497.06;;;26.70;56.66
113;BME280;45999;48.808;9.182;2023-07-09T07:45:47;98496.34;;;26.86;56.59
113;BME280;45999;48.808;9.182;2023-07-09T07:48:14;98491.44;;;26.97;55.46
113;BME280;45999;48.808;9.182;2023-07-09T07:50:40;98492.59;;;26.74;56.71
113;BME280;45999;48.808;9.182;2023-07-09T07:53:07;98490.72;;;26.83;55.75
113;BME280;45999;48.808;9.182;2023-07-09T07:55:34;98482.88;;;26.90;56.09
113;BME280;45999;48.808;9.182;2023-07-09T07:58:01;98486.66;;;27.02;55.37
113;BME280;45999;48.808;9.182;2023-07-09T08:00:29;98479.34;;;27.20;54.19
113;BME280;45999;48.808;9.182;2023-07-09T08:02:56;98481.00;;;27.38;54.44
113;BME280;45999;48.808;9.182;2023-07-09T08:05:22;98481.84;;;27.39;53.51
113;BME280;45999;48.808;9.182;2023-07-09T08:07:49;98475.13;;;27.70;52.70
113;BME280;45999;48.808;9.182;2023-07-09T08:10:16;98476.75;;;27.71;53.00
113;BME280;45999;48.808;9.182;2023-07-09T08:12:43;98480.44;;;27.75;51.94
113;BME280;45999;48.808;9.182;2023-07-09T08:15:09;98476.44;;;27.81;52.97
113;BME280;45999;48.808;9.182;2023-07-09T08:17:36;98476.47;;;27.98;51.59
113;BME280;45999;48.808;9.182;2023-07-09T08:20:02;98468.28;;;28.15;49.65
113;BME280;45999;48.808;9.182;2023-07-09T08:22:29;98482.25;;;27.88;49.79
113;BME280;45999;48.808;9.182;2023-07-09T08:24:55;98470.03;;;28.11;49.59
113;BME280;45999;48.808;9.182;2023-07-09T08:27:22;98470.81;;;28.29;49.98
113;BME280;45999;48.808;9.182;2023-07-09T08:29:48;98468.75;;;28.17;48.48
113;BME280;45999;48.808;9.182;2023-07-09T08:32:15;98475.66;;;28.32;48.81
113;BME280;45999;48.808;9.182;2023-07-09T08:34:41;98480.97;;;28.54;48.60
113;BME280;45999;48.808;9.182;2023-07-09T08:37:08;98478.03;;;28.67;48.21
113;BME280;45999;48.808;9.182;2023-07-09T08:39:35;98477.09;;;28.63;47.47
113;BME280;45999;48.808;9.182;2023-07-09T08:42:09;98480.75;;;28.76;47.09
113;BME280;45999;48.808;9.182;2023-07-09T08:45:03;98473.97;;;28.82;46.56
113;BME280;45999;48.808;9.182;2023-07-09T08:48:04;98473.44;;;28.97;43.97
113;BME280;45999;48.808;9.182;2023-07-09T08:50:47;98468.03;;;28.80;45.37
113;BME280;45999;48.808;9.182;2023-07-09T08:53:21;98476.44;;;28.66;45.33
113;BME280;45999;48.808;9.182;2023-07-09T08:55:52;98478.53;;;28.61;45.12
113;BME280;45999;48.808;9.182;2023-07-09T08:58:30;98467.84;;;28.85;45.35
113;BME280;45999;48.808;9.182;2023-07-09T09:01:00;98464.03;;;29.23;43.85
113;BME280;45999;48.808;9.182;2023-07-09T09:03:29;98475.69;;;29.41;43.78
113;BME280;45999;48.808;9.182;2023-07-09T09:05:59;98471.56;;;29.55;43.27
113;BME280;45999;48.808;9.182;2023-07-09T09:08:54;98473.22;;;29.77;42.80
113;BME280;45999;48.808;9.182;2023-07-09T09:11:29;98472.59;;;30.00;41.74
113;BME280;45999;48.808;9.182;2023-07-09T09:14:01;98476.63;;;29.94;42.25
113;BME280;45999;48.808;9.182;2023-07-09T09:16:31;98474.78;;;29.86;43.00
113;BME280;45999;48.808;9.182;2023-07-09T09:18:59;98474.06;;;29.98;41.61
113;BME280;45999;48.808;9.182;2023-07-09T09:21:32;98468.44;;;30.15;42.28
113;BME280;45999;48.808;9.182;2023-07-09T09:24:30;98479.75;;;30.34;43.17
113;BME280;45999;48.808;9.182;2023-07-09T09:26:58;98477.75;;;30.22;42.46
113;BME280;45999;48.808;9.182;2023-07-09T09:29:25;98474.13;;;30.63;42.11
113;BME280;45999;48.808;9.182;2023-07-09T09:31:56;98467.78;;;30.50;43.19
113;BME280;45999;48.808;9.182;2023-07-09T09:34:28;98471.31;;;30.71;41.42
113;BME280;45999;48.808;9.182;2023-07-09T09:36:57;98470.75;;;30.78;41.33
113;BME280;45999;48.808;9.182;2023-07-09T09:39:25;98461.72;;;30.77;42.08
113;BME280;45999;48.808;9.182;2023-07-09T09:41:57;98466.09;;;30.90;41.49
113;BME280;45999;48.808;9.182;2023-07-09T09:44:26;98473.88;;;30.56;40.59
113;BME280;45999;48.808;9.182;2023-07-09T09:46:56;98475.22;;;30.50;39.94
113;BME280;45999;48.808;9.182;2023-07-09T09:49:23;98481.38;;;30.67;40.04
113;BME280;45999;48.808;9.182;2023-07-09T09:51:50;98471.47;;;30.54;40.70
113;BME280;45999;48.808;9.182;2023-07-09T09:54:19;98476.13;;;30.74;40.37
113;BME280;45999;48.808;9.182;2023-07-09T09:56:48;98470.22;;;30.96;40.42
113;BME280;45999;48.808;9.182;2023-07-09T09:59:29;98469.09;;;31.57;38.71
113;BME280;45999;48.808;9.182;2023-07-09T10:02:01;98457.66;;;31.79;38.51
113;BME280;45999;48.808;9.182;2023-07-09T10:04:29;98452.22;;;31.95;36.80
113;BME280;45999;48.808;9.182;2023-07-09T10:07:03;98456.53;;;31.80;35.86
113;BME280;45999;48.808;9.182;2023-07-09T10:09:43;98451.28;;;31.27;36.36
113;BME280;45999;48.808;9.182;2023-07-09T10:12:19;98451.47;;;31.58;35.03
113;BME280;45999;48.808;9.182;2023-07-09T10:14:56;98445.88;;;31.79;34.61
113;BME280;45999;48.808;9.182;2023-07-09T10:17:40;98446.13;;;32.01;34.11
113;BME280;45999;48.808;9.182;2023-07-09T10:23:51;98437.44;;;32.27;30.34
113;BME280;45999;48.808;9.182;2023-07-09T10:31:26;98434.88;;;32.77;30.64
113;BME280;45999;48.808;9.182;2023-07-09T10:39:11;98428.38;;;32.97;29.36
113;BME280;45999;48.808;9.182;2023-07-09T10:41:41;98424.72;;;32.93;29.45
113;BME280;45999;48.808;9.182;2023-07-09T10:44:36;98424.66;;;32.89;29.38
113;BME280;45999;48.808;9.182;2023-07-09T10:47:25;98427.13;;;32.94;28.64
113;BME280;45999;48.808;9.182;2023-07-09T10:49:55;98425.16;;;33.10;29.13
113;BME280;45999;48.808;9.182;2023-07-09T10:52:28;98410.41;;;33.18;30.00
113;BME280;45999;48.808;9.182;2023-07-09T10:55:17;98414.88;;;33.07;28.49
113;BME280;45999;48.808;9.182;2023-07-09T10:58:05;98409.59;;;33.02;29.49
113;BME280;45999;48.808;9.182;2023-07-09T11:00:39;98401.84;;;33.23;29.24
113;BME280;45999;48.808;9.182;2023-07-09T11:05:54;98404.94;;;33.53;28.44
113;BME280;45999;48.808;9.182;2023-07-09T11:08:25;98399.78;;;33.20;27.82
113;BME280;45999;48.808;9.182;2023-07-09T11:10:59;98397.84;;;32.59;28.30
113;BME280;45999;48.808;9.182;2023-07-09T11:16:03;98404.69;;;33.11;28.21
113;BME280;45999;48.808;9.182;2023-07-09T11:18:33;98391.91;;;33.19;27.45
113;BME280;45999;48.808;9.182;2023-07-09T11:21:17;98391.34;;;33.29;26.36
113;BME280;45999;48.808;9.182;2023-07-09T11:23:49;98393.59;;;33.23;26.54
113;BME280;45999;48.808;9.182;2023-07-09T11:26:25;98401.09;;;33.07;26.63
113;BME280;45999;48.808;9.182;2023-07-09T11:28:54;98385.78;;;33.25;27.47
113;BME280;45999;48.808;9.182;2023-07-09T11:31:47;98389.66;;;33.40;27.42
113;BME280;45999;48.808;9.182;2023-07-09T11:39:47;98388.75;;;33.51;25.75
113;BME280;45999;48.808;9.182;2023-07-09T11:42:29;98384.75;;;33.49;26.66
113;BME280;45999;48.808;9.182;2023-07-09T11:45:11;98383.25;;;33.36;26.40
113;BME280;45999;48.808;9.182;2023-07-09T11:47:42;98377.84;;;33.39;25.24
113;BME280;45999;48.808;9.182;2023-07-09T11:50:22;98383.41;;;33.58;26.23
113;BME280;45999;48.808;9.182;2023-07-09T11:52:55;98382.47;;;33.70;25.76
113;BME280;45999;48.808;9.182;2023-07-09T11:58:02;98384.69;;;33.45;24.76
113;BME280;45999;48.808;9.182;2023-07-09T12:00:37;98377.59;;;33.63;25.30
113;BME280;45999;48.808;9.182;2023-07-09T12:03:06;98377.47;;;33.76;24.24
113;BME280;45999;48.808;9.182;2023-07-09T12:05:33;98364.63;;;33.64;23.26
113;BME280;45999;48.808;9.182;2023-07-09T12:08:00;98373.69;;;33.84;24.41
113;BME280;45999;48.808;9.182;2023-07-09T12:10:28;98368.88;;;33.61;23.07
113;BME280;45999;48.808;9.182;2023-07-09T12:12:59;98373.66;;;33.64;22.54
113;BME280;45999;48.808;9.182;2023-07-09T12:15:28;98367.75;;;33.82;23.91
113;BME280;45999;48.808;9.182;2023-07-09T12:18:02;98361.69;;;33.76;24.14
113;BME280;45999;48.808;9.182;2023-07-09T12:20:33;98356.81;;;33.69;24.21
113;BME280;45999;48.808;9.182;2023-07-09T12:23:00;98357.84;;;33.61;24.08
113;BME280;45999;48.808;9.182;2023-07-09T12:25:35;98360.66;;;33.46;24.69
113;BME280;45999;48.808;9.182;2023-07-09T12:28:02;98351.25;;;33.47;24.84
113;BME280;45999;48.808;9.182;2023-07-09T12:30:32;98349.22;;;33.82;24.21
113;BME280;45999;48.808;9.182;2023-07-09T12:32:59;98354.63;;;33.94;25.06
113;BME280;45999;48.808;9.182;2023-07-09T12:35:28;98344.59;;;34.05;25.43
113;BME280;45999;48.808;9.182;2023-07-09T12:37:54;98340.59;;;34.03;24.63
113;BME280;45999;48.808;9.182;2023-07-09T12:40:27;98339.25;;;34.16;25.10
113;BME280;45999;48.808;9.182;2023-07-09T12:42:54;98338.84;;;34.14;23.67
113;BME280;45999;48.808;9.182;2023-07-09T12:45:23;98332.00;;;33.69;23.94
113;BME280;45999;48.808;9.182;2023-07-09T12:47:50;98329.47;;;33.61;24.48
113;BME280;45999;48.808;9.182;2023-07-09T12:50:34;98332.16;;;33.77;24.66
113;BME280;45999;48.808;9.182;2023-07-09T12:53:13;98327.13;;;34.20;22.69
113;BME280;45999;48.808;9.182;2023-07-09T12:55:41;98325.84;;;34.14;22.60
113;BME280;45999;48.808;9.182;2023-07-09T12:58:11;98323.84;;;34.34;22.28
113;BME280;45999;48.808;9.182;2023-07-09T13:00:40;98312.16;;;34.21;22.42
113;BME280;45999;48.808;9.182;2023-07-09T13:03:13;98323.13;;;34.37;21.61
113;BME280;45999;48.808;9.182;2023-07-09T13:05:54;98311.06;;;34.26;21.72
113;BME280;45999;48.808;9.182;2023-07-09T13:08:20;98321.56;;;34.17;21.43
113;BME280;45999;48.808;9.182;2023-07-09T13:10:47;98307.38;;;34.18;21.29
113;BME280;45999;48.808;9.182;2023-07-09T13:13:16;98308.53;;;33.95;21.33
113;BME280;45999;48.808;9.182;2023-07-09T13:15:49;98298.66;;;33.94;21.16
113;BME280;45999;48.808;9.182;2023-07-09T13:18:17;98291.72;;;34.03;21.52
113;BME280;45999;48.808;9.182;2023-07-09T13:20:45;98286.66;;;34.05;20.89
113;BME280;45999;48.808;9.182;2023-07-09T13:23:22;98282.06;;;34.13;21.92
113;BME280;45999;48.808;9.182;2023-07-09T13:25:49;98277.16;;;34.25;22.38
113;BME280;45999;48.808;9.182;2023-07-09T13:30:50;98276.56;;;34.58;21.85
113;BME280;45999;48.808;9.182;2023-07-09T13:33:17;98273.03;;;34.61;23.00
113;BME280;45999;48.808;9.182;2023-07-09T13:35:44;98270.88;;;34.73;22.14
113;BME280;45999;48.808;9.182;2023-07-09T13:38:16;98283.31;;;34.86;23.28
113;BME280;45999;48.808;9.182;2023-07-09T13:40:44;98266.88;;;34.93;22.59
113;BME280;45999;48.808;9.182;2023-07-09T13:43:19;98265.63;;;35.17;22.21
113;BME280;45999;48.808;9.182;2023-07-09T13:45:46;98270.56;;;35.30;22.21
113;BME280;45999;48.808;9.182;2023-07-09T13:48:17;98272.38;;;35.19;21.54
113;BME280;45999;48.808;9.182;2023-07-09T13:50:46;98270.31;;;34.87;21.66
113;BME280;45999;48.808;9.182;2023-07-09T13:53:17;98273.19;;;34.71;22.35
113;BME280;45999;48.808;9.182;2023-07-09T13:55:44;98271.81;;;34.81;22.48
113;BME280;45999;48.808;9.182;2023-07-09T13:58:13;98267.59;;;34.90;21.35
113;BME280;45999;48.808;9.182;2023-07-09T14:00:41;98269.94;;;34.88;21.14
113;BME280;45999;48.808;9.182;2023-07-09T14:03:22;98274.78;;;34.95;21.12
113;BME280;45999;48.808;9.182;2023-07-09T14:05:52;98264.47;;;34.92;22.63
113;BME280;45999;48.808;9.182;2023-07-09T14:08:21;98261.06;;;34.76;21.90
113;BME280;45999;48.808;9.182;2023-07-09T14:10:48;98257.75;;;34.93;21.66